Time,TemperatureF,DewpointF,PressureIn,WindDirection,WindDirectionDegrees,WindSpeedMPH,WindSpeedGustMPH,Humidity,HourlyPrecipIn,Conditions,Clouds,dailyrainin,SoftwareType,DateUTC
2013-05-27 00:14:00,57.3,47.6,30.32,North,-999,-999.0,-999.0,69,0.00,n/a,n/a,-99.99,Henriksen +1-Wire,2013-05-27 04:14:00,
2013-05-27 00:29:00,57.0,47.5,30.32,North,-999,-999.0,-999.0,70,0.00,n/a,n/a,-99.99,Henriksen +1-Wire,2013-05-27 04:29:00,
2013-05-27 00:44:00,56.9,47.6,30.32,North,-999,-999.0,-999.0,70,0.00,n/a,n/a,-99.99,Henriksen +1-Wire,2013-05-27 04:44:00,
2013-05-27 00:59:00,56.9,47.8,30.32,North,-999,-999.0,-999.0,71,0.00,n/a,n/a,-99.99,Henriksen +1-Wire,2013-05-27 04:59:00,
2013-05-27 01:14:00,56.8,47.7,30.32,North,-999,-999.0,-999.0,71,0.00,n/a,n/a,-99.99,Henriksen +1-Wire,2013-05-27 05:14:00,
2013-05-27 01:29:00,56.6,47.5,30.32,North,-999,-999.0,-999.0,71,0.00,n/a,n/a,-99.99,Henriksen +1-Wire,2013-05-27 05:29:00,
2013-05-27 01:44:00,56.3,47.4,30.31,North,-999,-999.0,-999.0,71,0.00,n/a,n/a,-99.99,Henriksen +1-Wire,2013-05-27 05:44:00,
2013-05-27 01:59:00,55.8,47.0,30.31,North,-999,-999.0,-999.0,72,0.00,n/a,n/a,-99.99,Henriksen +1-Wire,2013-05-27 05:59:00,
2013-05-27 02:14:00,55.4,46.8,30.31,North,-999,-999.0,-999.0,72,0.00,n/a,n/a,-99.99,Henriksen +1-Wire,2013-05-27 06:14:00,
2013-05-27 02:29:00,55.4,46.9,30.31,North,-999,-999.0,-999.0,72,0.00,n/a,n/a,-99.99,Henriksen +1-Wire,2013-05-27 06:29:00,
2013-05-27 02:44:00,55.3,47.0,30.31,North,-999,-999.0,-999.0,73,0.00,n/a,n/a,-99.99,Henriksen +1-Wire,2013-05-27 06:44:00,
2013-05-27 02:59:00,55.2,47.0,30.31,North,-999,-999.0,-999.0,73,0.00,n/a,n/a,-99.99,Henriksen +1-Wire,2013-05-27 06:59:00,
2013-05-27 03:14:00,55.0,46.8,30.31,North,-999,-999.0,-999.0,73,0.00,n/a,n/a,-99.99,Henriksen +1-Wire,2013-05-27 07:14:00,
2013-05-27 03:29:00,54.7,46.4,30.30,North,-999,-999.0,-999.0,73,0.00,n/a,n/a,-99.99,Henriksen +1-Wire,2013-05-27 07:29:00,
2013-05-27 03:44:00,54.3,46.2,30.31,North,-999,-999.0,-999.0,73,0.00,n/a,n/a,-99.99,Henriksen +1-Wire,2013-05-27 07:44:00,
2013-05-27 03:59:00,53.9,46.0,30.31,North,-999,-999.0,-999.0,74,0.00,n/a,n/a,-99.99,Henriksen +1-Wire,2013-05-27 07:59:00,
2013-05-27 04:14:00,53.7,45.8,30.31,North,-999,-999.0,-999.0,74,0.00,n/a,n/a,-99.99,Henriksen +1-Wire,2013-05-27 08:14:00,
2013-05-27 04:29:00,53.1,45.3,30.31,North,-999,-999.0,-999.0,74,0.00,n/a,n/a,-99.99,Henriksen +1-Wire,2013-05-27 08:29:00,
2013-05-27 04:44:00,52.9,45.2,30.31,North,-999,-999.0,-999.0,74,0.00,n/a,n/a,-99.99,Henriksen +1-Wire,2013-05-27 08:44:00,
2013-05-27 04:59:00,52.7,44.9,30.32,North,-999,-999.0,-999.0,74,0.00,n/a,n/a,-99.99,Henriksen +1-Wire,2013-05-27 08:59:00,
2013-05-27 05:14:00,52.9,45.2,30.32,North,-999,-999.0,-999.0,74,0.00,n/a,n/a,-99.99,Henriksen +1-Wire,2013-05-27 09:14:00,
2013-05-27 05:29:00,53.0,45.5,30.32,North,-999,-999.0,-999.0,75,0.00,n/a,n/a,-99.99,Henriksen +1-Wire,2013-05-27 09:29:00,
2013-05-27 05:44:00,52.9,45.4,30.32,North,-999,-999.0,-999.0,75,0.00,n/a,n/a,-99.99,Henriksen +1-Wire,2013-05-27 09:44:00,
2013-05-27 05:59:00,52.6,45.3,30.32,North,-999,-999.0,-999.0,75,0.00,n/a,n/a,-99.99,Henriksen +1-Wire,2013-05-27 09:59:00,
2013-05-27 06:14:00,52.5,45.2,30.32,North,-999,-999.0,-999.0,76,0.00,n/a,n/a,-99.99,Henriksen +1-Wire,2013-05-27 10:14:00,
2013-05-27 06:29:00,52.3,45.1,30.32,North,-999,-999.0,-999.0,76,0.00,n/a,n/a,-99.99,Henriksen +1-Wire,2013-05-27 10:29:00,
2013-05-27 06:44:00,52.3,45.1,30.34,North,-999,-999.0,-999.0,76,0.00,n/a,n/a,-99.99,Henriksen +1-Wire,2013-05-27 10:44:00,
2013-05-27 06:59:00,52.4,45.3,30.35,North,-999,-999.0,-999.0,76,0.00,n/a,n/a,-99.99,Henriksen +1-Wire,2013-05-27 10:59:00,
2013-05-27 07:14:00,52.5,45.4,30.35,North,-999,-999.0,-999.0,76,0.00,n/a,n/a,-99.99,Henriksen +1-Wire,2013-05-27 11:14:00,
2013-05-27 07:29:00,52.6,45.5,30.35,North,-999,-999.0,-999.0,76,0.00,n/a,n/a,-99.99,Henriksen +1-Wire,2013-05-27 11:29:00,
2013-05-27 07:44:00,52.8,45.8,30.35,North,-999,-999.0,-999.0,76,0.00,n/a,n/a,-99.99,Henriksen +1-Wire,2013-05-27 11:44:00,
2013-05-27 07:59:00,53.1,46.2,30.35,North,-999,-999.0,-999.0,77,0.00,n/a,n/a,-99.99,Henriksen +1-Wire,2013-05-27 11:59:00,
2013-05-27 08:14:00,53.6,46.6,30.35,North,-999,-999.0,-999.0,76,0.00,n/a,n/a,-99.99,Henriksen +1-Wire,2013-05-27 12:14:00,
2013-05-27 08:29:00,54.2,47.1,30.34,North,-999,-999.0,-999.0,76,0.00,n/a,n/a,-99.99,Henriksen +1-Wire,2013-05-27 12:29:00,
2013-05-27 08:44:00,55.0,47.7,30.35,North,-999,-999.0,-999.0,76,0.00,n/a,n/a,-99.99,Henriksen +1-Wire,2013-05-27 12:44:00,
2013-05-27 08:59:00,55.9,48.6,30.34,North,-999,-999.0,-999.0,76,0.00,n/a,n/a,-99.99,Henriksen +1-Wire,2013-05-27 12:59:00,
2013-05-27 09:14:00,56.9,49.5,30.34,North,-999,-999.0,-999.0,76,0.00,n/a,n/a,-99.99,Henriksen +1-Wire,2013-05-27 13:14:00,
2013-05-27 09:29:00,57.7,50.1,30.34,North,-999,-999.0,-999.0,75,0.00,n/a,n/a,-99.99,Henriksen +1-Wire,2013-05-27 13:29:00,
2013-05-27 09:44:00,58.5,50.4,30.34,North,-999,-999.0,-999.0,74,0.00,n/a,n/a,-99.99,Henriksen +1-Wire,2013-05-27 13:44:00,
2013-05-27 09:59:00,59.5,50.7,30.34,North,-999,-999.0,-999.0,72,0.00,n/a,n/a,-99.99,Henriksen +1-Wire,2013-05-27 13:59:00,
2013-05-27 10:14:00,60.6,51.1,30.34,North,-999,-999.0,-999.0,70,0.00,n/a,n/a,-99.99,Henriksen +1-Wire,2013-05-27 14:14:00,
2013-05-27 10:29:00,61.4,51.2,30.33,North,-999,-999.0,-999.0,69,0.00,n/a,n/a,-99.99,Henriksen +1-Wire,2013-05-27 14:29:00,
2013-05-27 10:44:00,62.5,51.6,30.33,North,-999,-999.0,-999.0,67,0.00,n/a,n/a,-99.99,Henriksen +1-Wire,2013-05-27 14:44:00,
2013-05-27 10:59:00,63.9,52.5,30.33,North,-999,-999.0,-999.0,65,0.00,n/a,n/a,-99.99,Henriksen +1-Wire,2013-05-27 14:59:00,
2013-05-27 11:14:00,65.2,53.2,30.32,North,-999,-999.0,-999.0,64,0.00,n/a,n/a,-99.99,Henriksen +1-Wire,2013-05-27 15:14:00,
2013-05-27 11:29:00,67.5,54.5,30.32,North,-999,-999.0,-999.0,62,0.00,n/a,n/a,-99.99,Henriksen +1-Wire,2013-05-27 15:29:00,
2013-05-27 11:44:00,70.2,55.8,30.32,North,-999,-999.0,-999.0,59,0.00,n/a,n/a,-99.99,Henriksen +1-Wire,2013-05-27 15:44:00,
2013-05-27 11:59:00,72.6,56.0,30.32,North,-999,-999.0,-999.0,55,0.00,n/a,n/a,-99.99,Henriksen +1-Wire,2013-05-27 15:59:00,
2013-05-27 12:14:00,73.8,55.7,30.32,North,-999,-999.0,-999.0,52,0.00,n/a,n/a,-99.99,Henriksen +1-Wire,2013-05-27 16:14:00,
2013-05-27 12:29:00,74.0,54.8,30.32,North,-999,-999.0,-999.0,50,0.00,n/a,n/a,-99.99,Henriksen +1-Wire,2013-05-27 16:29:00,
2013-05-27 12:44:00,73.7,54.2,30.32,North,-999,-999.0,-999.0,49,0.00,n/a,n/a,-99.99,Henriksen +1-Wire,2013-05-27 16:44:00,
2013-05-27 12:59:00,73.6,54.0,30.31,North,-999,-999.0,-999.0,49,0.00,n/a,n/a,-99.99,Henriksen +1-Wire,2013-05-27 16:59:00,
2013-05-27 13:14:00,73.4,54.2,30.31,North,-999,-999.0,-999.0,50,0.00,n/a,n/a,-99.99,Henriksen +1-Wire,2013-05-27 17:14:00,
2013-05-27 13:29:00,73.6,53.9,30.31,North,-999,-999.0,-999.0,49,0.00,n/a,n/a,-99.99,Henriksen +1-Wire,2013-05-27 17:29:00,
2013-05-27 13:44:00,73.4,53.5,30.30,North,-999,-999.0,-999.0,49,0.00,n/a,n/a,-99.99,Henriksen +1-Wire,2013-05-27 17:44:00,
2013-05-27 13:59:00,73.6,53.7,30.30,North,-999,-999.0,-999.0,49,0.00,n/a,n/a,-99.99,Henriksen +1-Wire,2013-05-27 17:59:00,
2013-05-27 14:14:00,74.0,54.0,30.30,North,-999,-999.0,-999.0,49,0.00,n/a,n/a,-99.99,Henriksen +1-Wire,2013-05-27 18:14:00,
2013-05-27 14:29:00,74.1,53.8,30.30,North,-999,-999.0,-999.0,48,0.00,n/a,n/a,-99.99,Henriksen +1-Wire,2013-05-27 18:29:00,
2013-05-27 14:44:00,74.2,53.8,30.29,North,-999,-999.0,-999.0,48,0.00,n/a,n/a,-99.99,Henriksen +1-Wire,2013-05-27 18:44:00,
2013-05-27 14:59:00,74.6,53.6,30.29,North,-999,-999.0,-999.0,47,0.00,n/a,n/a,-99.99,Henriksen +1-Wire,2013-05-27 18:59:00,
2013-05-27 15:14:00,74.9,53.9,30.28,North,-999,-999.0,-999.0,47,0.00,n/a,n/a,-99.99,Henriksen +1-Wire,2013-05-27 19:14:00,
2013-05-27 15:29:00,75.0,54.0,30.28,North,-999,-999.0,-999.0,47,0.00,n/a,n/a,-99.99,Henriksen +1-Wire,2013-05-27 19:29:00,
2013-05-27 15:44:00,75.5,53.9,30.27,North,-999,-999.0,-999.0,46,0.00,n/a,n/a,-99.99,Henriksen +1-Wire,2013-05-27 19:44:00,
2013-05-27 15:59:00,75.5,53.9,30.27,North,-999,-999.0,-999.0,46,0.00,n/a,n/a,-99.99,Henriksen +1-Wire,2013-05-27 19:59:00,
2013-05-27 16:14:00,75.5,53.4,30.26,North,-999,-999.0,-999.0,45,0.00,n/a,n/a,-99.99,Henriksen +1-Wire,2013-05-27 20:14:00,
2013-05-27 16:29:00,75.2,52.9,30.26,North,-999,-999.0,-999.0,45,0.00,n/a,n/a,-99.99,Henriksen +1-Wire,2013-05-27 20:29:00,
2013-05-27 16:44:00,74.8,52.7,30.27,North,-999,-999.0,-999.0,45,0.00,n/a,n/a,-99.99,Henriksen +1-Wire,2013-05-27 20:44:00,
2013-05-27 16:59:00,74.4,52.7,30.26,North,-999,-999.0,-999.0,46,0.00,n/a,n/a,-99.99,Henriksen +1-Wire,2013-05-27 20:59:00,
2013-05-27 17:14:00,74.1,52.8,30.26,North,-999,-999.0,-999.0,46,0.00,n/a,n/a,-99.99,Henriksen +1-Wire,2013-05-27 21:14:00,
2013-05-27 17:29:00,73.8,52.7,30.26,North,-999,-999.0,-999.0,47,0.00,n/a,n/a,-99.99,Henriksen +1-Wire,2013-05-27 21:29:00,
2013-05-27 17:44:00,73.6,52.2,30.27,North,-999,-999.0,-999.0,46,0.00,n/a,n/a,-99.99,Henriksen +1-Wire,2013-05-27 21:44:00,
2013-05-27 17:59:00,73.4,52.3,30.26,North,-999,-999.0,-999.0,47,0.00,n/a,n/a,-99.99,Henriksen +1-Wire,2013-05-27 21:59:00,
2013-05-27 18:14:00,73.1,53.0,30.26,North,-999,-999.0,-999.0,48,0.00,n/a,n/a,-99.99,Henriksen +1-Wire,2013-05-27 22:14:00,
2013-05-27 18:29:00,72.8,53.5,30.26,North,-999,-999.0,-999.0,50,0.00,n/a,n/a,-99.99,Henriksen +1-Wire,2013-05-27 22:29:00,
2013-05-27 18:44:00,72.4,53.7,30.27,North,-999,-999.0,-999.0,51,0.00,n/a,n/a,-99.99,Henriksen +1-Wire,2013-05-27 22:44:00,
2013-05-27 18:59:00,72.1,53.7,30.26,North,-999,-999.0,-999.0,51,0.00,n/a,n/a,-99.99,Henriksen +1-Wire,2013-05-27 22:59:00,
2013-05-27 19:14:00,71.8,53.7,30.26,North,-999,-999.0,-999.0,52,0.00,n/a,n/a,-99.99,Henriksen +1-Wire,2013-05-27 23:14:00,
2013-05-27 19:29:00,71.6,53.8,30.27,North,-999,-999.0,-999.0,53,0.00,n/a,n/a,-99.99,Henriksen +1-Wire,2013-05-27 23:29:00,
2013-05-27 19:44:00,71.1,53.6,30.27,North,-999,-999.0,-999.0,53,0.00,n/a,n/a,-99.99,Henriksen +1-Wire,2013-05-27 23:44:00,
2013-05-27 19:59:00,70.7,53.6,30.27,North,-999,-999.0,-999.0,54,0.00,n/a,n/a,-99.99,Henriksen +1-Wire,2013-05-27 23:59:00,
2013-05-27 20:14:00,70.3,53.6,30.26,North,-999,-999.0,-999.0,55,0.00,n/a,n/a,-99.99,Henriksen +1-Wire,2013-05-28 00:14:00,
2013-05-27 20:29:00,69.8,53.7,30.26,North,-999,-999.0,-999.0,56,0.00,n/a,n/a,-99.99,Henriksen +1-Wire,2013-05-28 00:29:00,
2013-05-27 20:44:00,69.1,53.5,30.26,North,-999,-999.0,-999.0,57,0.00,n/a,n/a,-99.99,Henriksen +1-Wire,2013-05-28 00:44:00,
2013-05-27 20:59:00,68.5,53.4,30.26,North,-999,-999.0,-999.0,58,0.00,n/a,n/a,-99.99,Henriksen +1-Wire,2013-05-28 00:59:00,
2013-05-27 21:14:00,68.0,53.4,30.26,North,-999,-999.0,-999.0,59,0.00,n/a,n/a,-99.99,Henriksen +1-Wire,2013-05-28 01:14:00,
2013-05-27 21:29:00,67.5,53.4,30.27,North,-999,-999.0,-999.0,60,0.00,n/a,n/a,-99.99,Henriksen +1-Wire,2013-05-28 01:29:00,
2013-05-27 21:44:00,67.1,53.5,30.27,North,-999,-999.0,-999.0,61,0.00,n/a,n/a,-99.99,Henriksen +1-Wire,2013-05-28 01:44:00,
2013-05-27 21:59:00,66.9,53.5,30.28,North,-999,-999.0,-999.0,61,0.00,n/a,n/a,-99.99,Henriksen +1-Wire,2013-05-28 01:59:00,
2013-05-27 22:14:00,66.6,53.6,30.29,North,-999,-999.0,-999.0,62,0.00,n/a,n/a,-99.99,Henriksen +1-Wire,2013-05-28 02:14:00,
2013-05-27 22:29:00,66.5,53.7,30.29,North,-999,-999.0,-999.0,63,0.00,n/a,n/a,-99.99,Henriksen +1-Wire,2013-05-28 02:29:00,
2013-05-27 22:44:00,66.3,53.6,30.29,North,-999,-999.0,-999.0,63,0.00,n/a,n/a,-99.99,Henriksen +1-Wire,2013-05-28 02:44:00,
2013-05-27 22:59:00,66.0,53.4,30.30,North,-999,-999.0,-999.0,63,0.00,n/a,n/a,-99.99,Henriksen +1-Wire,2013-05-28 02:59:00,
2013-05-27 23:14:00,65.7,53.4,30.30,North,-999,-999.0,-999.0,64,0.00,n/a,n/a,-99.99,Henriksen +1-Wire,2013-05-28 03:14:00,
2013-05-27 23:29:00,65.3,53.4,30.30,North,-999,-999.0,-999.0,64,0.00,n/a,n/a,-99.99,Henriksen +1-Wire,2013-05-28 03:29:00,
2013-05-27 23:44:00,65.0,53.3,30.30,North,-999,-999.0,-999.0,65,0.00,n/a,n/a,-99.99,Henriksen +1-Wire,2013-05-28 03:44:00,
2013-05-27 23:59:00,64.6,53.2,30.30,North,-999,-999.0,-999.0,66,0.00,n/a,n/a,-99.99,Henriksen +1-Wire,2013-05-28 03:59:00,